Time;durP1;ratioP1;P1;durP2;ratioP2;P2;SDS_P1;SDS_P2;PMS_P1;PMS_P2;Temp;Humidity;BMP_temperature;BMP_pressure;BME280_temperature;BME280_humidity;BME280_pressure;Samples;Min_cycle;Max_cycle;Signal;HPM_P1;HPM_P2
2024/04/03 00:01:28;;;;;;;2.72;1.25;;;7.50;53.80;;;;;;5013659;28;20230;-71
2024/04/03 00:03:55;;;;;;;2.50;1.30;;;7.40;53.90;;;;;;5014666;28;20211;-70
2024/04/03 00:06:21;;;;;;;2.50;1.15;;;7.40;54.00;;;;;;5014304;28;20592;-71
2024/04/03 00:08:48;;;;;;;2.50;1.07;;;7.40;54.10;;;;;;5015006;28;20176;-70
2024/04/03 00:11:14;;;;;;;2.35;1.00;;;7.40;54.00;;;;;;5009041;28;20526;-70
2024/04/03 00:13:42;;;;;;;2.53;1.17;;;7.40;53.80;;;;;;4994596;28;20232;-70
2024/04/03 00:16:09;;;;;;;2.75;1.50;;;7.40;53.80;;;;;;4994522;28;20463;-71
2024/04/03 00:18:36;;;;;;;2.30;1.10;;;7.40;53.80;;;;;;4994491;28;20670;-70
2024/04/03 00:21:02;;;;;;;2.80;0.90;;;7.40;53.90;;;;;;4997422;28;20216;-71
2024/04/03 00:23:30;;;;;;;4.53;1.25;;;7.40;54.00;;;;;;5013298;28;20224;-70
2024/04/03 00:26:00;;;;;;;3.42;1.27;;;7.40;54.00;;;;;;5013956;28;20227;-71
2024/04/03 00:28:27;;;;;;;2.85;1.33;;;7.40;53.80;;;;;;5014461;28;20647;-71
2024/04/03 00:30:55;;;;;;;2.08;0.85;;;7.40;53.80;;;;;;5013520;28;20195;-70
2024/04/03 00:33:22;;;;;;;2.10;0.80;;;7.40;53.60;;;;;;5013856;28;20672;-70
2024/04/03 00:35:55;;;;;;;2.85;1.63;;;7.40;53.60;;;;;;5014206;28;20219;-70
2024/04/03 00:38:23;;;;;;;2.38;0.90;;;7.50;53.40;;;;;;5014033;28;20562;-70
2024/04/03 00:40:56;;;;;;;2.40;1.30;;;7.50;53.40;;;;;;5013086;28;20250;-71
2024/04/03 00:43:23;;;;;;;3.10;0.80;;;7.40;53.30;;;;;;4994046;28;20209;-71
2024/04/03 00:45:49;;;;;;;2.38;0.88;;;7.40;53.30;;;;;;4994402;28;20223;-70
2024/04/03 00:48:17;;;;;;;4.10;1.30;;;7.40;53.80;;;;;;4994376;28;20616;-70
2024/04/03 00:50:45;;;;;;;2.28;1.02;;;7.40;53.30;;;;;;4994922;28;20235;-70
2024/04/03 00:53:12;;;;;;;2.40;0.90;;;7.40;53.20;;;;;;5013676;28;20200;-71
2024/04/03 00:55:40;;;;;;;2.95;1.02;;;7.40;53.20;;;;;;5013874;28;20230;-70
2024/04/03 00:58:07;;;;;;;2.83;1.00;;;7.40;53.10;;;;;;5013875;28;20192;-70
2024/04/03 01:00:33;;;;;;;2.75;1.08;;;7.50;53.10;;;;;;5013735;28;20528;-70
2024/04/03 01:03:01;;;;;;;2.10;0.90;;;7.60;52.80;;;;;;5012976;28;20187;-70
2024/04/03 01:05:28;;;;;;;2.20;0.82;;;7.60;52.60;;;;;;5013765;28;20244;-71
2024/04/03 01:07:55;;;;;;;2.97;1.17;;;7.60;52.50;;;;;;5013758;28;20578;-71
2024/04/03 01:10:21;;;;;;;2.92;1.10;;;7.60;52.50;;;;;;5013747;28;20227;-71
2024/04/03 01:12:49;;;;;;;2.10;0.90;;;7.60;52.20;;;;;;5013018;28;20191;-70
2024/04/03 01:15:15;;;;;;;2.15;1.00;;;7.60;52.30;;;;;;5013800;28;20230;-71
2024/04/03 01:17:42;;;;;;;2.00;1.00;;;7.60;52.20;;;;;;5013394;28;20191;-70
2024/04/03 01:20:08;;;;;;;2.90;1.08;;;7.60;52.20;;;;;;5013258;28;20598;-70
2024/04/03 01:22:37;;;;;;;2.50;1.00;;;7.60;52.60;;;;;;4996396;28;20252;-70
2024/04/03 01:25:05;;;;;;;2.38;0.80;;;7.60;51.70;;;;;;4993633;28;20250;-70
2024/04/03 01:27:32;;;;;;;2.03;0.80;;;7.60;51.70;;;;;;4994021;28;20283;-70
2024/04/03 01:29:58;;;;;;;2.25;1.00;;;7.60;51.80;;;;;;4993960;28;20227;-71
2024/04/03 01:32:25;;;;;;;3.00;0.80;;;7.50;52.40;;;;;;5008912;28;20190;-70
2024/04/03 01:34:51;;;;;;;4.65;1.00;;;7.50;51.90;;;;;;5013542;28;20266;-70
2024/04/03 01:37:20;;;;;;;3.60;1.00;;;7.50;51.90;;;;;;5013502;28;20195;-70
2024/04/03 01:39:46;;;;;;;2.50;1.23;;;7.50;51.90;;;;;;5013817;28;20828;-70
2024/04/03 01:42:14;;;;;;;2.35;1.13;;;7.50;51.80;;;;;;5012970;28;20571;-70
2024/04/03 01:44:40;;;;;;;2.50;0.95;;;7.50;51.80;;;;;;5013359;28;20289;-71
2024/04/03 01:47:07;;;;;;;5.40;2.10;;;7.50;52.00;;;;;;5013145;28;20655;-71
2024/04/03 01:49:33;;;;;;;4.70;1.40;;;7.40;51.90;;;;;;5013073;28;20227;-71
2024/04/03 01:52:00;;;;;;;3.20;1.20;;;7.40;52.10;;;;;;5015965;28;20658;-71
2024/04/03 01:54:27;;;;;;;3.10;1.38;;;7.40;52.10;;;;;;5016787;28;20192;-71
2024/04/03 01:56:54;;;;;;;4.80;1.15;;;7.30;51.90;;;;;;5017137;28;20191;-70
2024/04/03 01:59:22;;;;;;;2.50;1.05;;;7.30;51.80;;;;;;5016661;28;20631;-71
2024/04/03 02:01:49;;;;;;;2.75;1.25;;;7.30;51.70;;;;;;5014426;28;20642;-70
2024/04/03 02:04:15;;;;;;;5.03;1.42;;;7.20;52.00;;;;;;5016881;28;20327;-70
2024/04/03 02:06:42;;;;;;;3.40;1.67;;;7.20;52.00;;;;;;5013932;28;20192;-71
2024/04/03 02:09:08;;;;;;;6.70;1.73;;;7.20;52.30;;;;;;5016837;28;20249;-71
2024/04/03 02:11:34;;;;;;;2.80;1.20;;;7.10;52.00;;;;;;5016457;28;20192;-71
2024/04/03 02:14:00;;;;;;;4.20;1.45;;;7.10;52.00;;;;;;5016690;28;20471;-71
2024/04/03 02:16:30;;;;;;;2.60;1.40;;;7.10;52.20;;;;;;5015885;28;20210;-70
2024/04/03 02:18:56;;;;;;;4.07;2.20;;;7.10;52.30;;;;;;5016241;28;20274;-70
2024/04/03 02:21:23;;;;;;;6.15;2.28;;;7.00;52.50;;;;;;5016547;28;20198;-70
2024/04/03 02:23:49;;;;;;;3.20;1.25;;;7.10;52.90;;;;;;5016594;28;20263;-70
2024/04/03 02:26:17;;;;;;;6.38;3.67;;;7.10;52.70;;;;;;5016529;28;20223;-70
2024/04/03 02:28:43;;;;;;;4.63;1.67;;;7.10;52.70;;;;;;5015810;28;20223;-71
2024/04/03 02:31:10;;;;;;;3.70;1.92;;;7.10;52.60;;;;;;5005625;28;20231;-70
2024/04/03 02:33:38;;;;;;;4.32;2.45;;;7.10;52.20;;;;;;4996096;28;20192;-70
2024/04/03 02:36:12;;;;;;;2.40;1.05;;;7.00;52.00;;;;;;4996739;28;20200;-71
2024/04/03 02:38:38;;;;;;;3.58;1.50;;;6.90;52.20;;;;;;4996649;28;20195;-71
2024/04/03 02:41:05;;;;;;;4.72;1.20;;;6.80;52.20;;;;;;4995990;28;20601;-70
2024/04/03 02:43:31;;;;;;;3.30;0.90;;;6.70;52.60;;;;;;4996204;28;20717;-70
2024/04/03 02:45:58;;;;;;;3.35;1.10;;;6.60;53.00;;;;;;4996220;28;20263;-70
2024/04/03 02:48:24;;;;;;;3.35;1.30;;;6.50;53.10;;;;;;4996183;28;20247;-70
2024/04/03 02:51:01;;;;;;;2.70;1.23;;;6.50;53.70;;;;;;4997168;28;20188;-70
2024/04/03 02:53:27;;;;;;;3.20;1.67;;;6.50;53.70;;;;;;4996364;28;20490;-70
2024/04/03 02:55:54;;;;;;;2.17;0.98;;;6.40;53.80;;;;;;4996450;28;20199;-71
2024/04/03 02:58:20;;;;;;;3.78;1.50;;;6.40;53.70;;;;;;4996286;28;20196;-70
2024/04/03 03:00:47;;;;;;;3.63;1.02;;;6.30;53.70;;;;;;5001208;28;20254;-70
2024/04/03 03:03:13;;;;;;;2.25;1.00;;;6.20;53.40;;;;;;5014872;28;20227;-71
2024/04/03 03:05:40;;;;;;;3.28;1.33;;;6.20;53.50;;;;;;5015812;28;20286;-70
2024/04/03 03:08:08;;;;;;;2.90;1.10;;;6.10;53.90;;;;;;5015740;28;20618;-71
2024/04/03 03:10:35;;;;;;;2.63;1.02;;;6.00;54.30;;;;;;5011690;28;20191;-70
2024/04/03 03:13:01;;;;;;;2.42;1.10;;;6.00;54.50;;;;;;4995785;28;20235;-71
2024/04/03 03:15:27;;;;;;;2.20;0.93;;;6.00;55.00;;;;;;4996305;28;20235;-70
2024/04/03 03:17:53;;;;;;;2.30;1.30;;;6.00;54.90;;;;;;4995775;28;20977;-70
2024/04/03 03:20:20;;;;;;;2.50;0.97;;;5.90;54.30;;;;;;4997128;28;20204;-70
2024/04/03 03:22:48;;;;;;;2.10;1.00;;;5.90;54.80;;;;;;5015494;28;20462;-70
2024/04/03 03:25:16;;;;;;;2.63;1.20;;;5.80;54.50;;;;;;5015478;28;20243;-70
2024/04/03 03:27:42;;;;;;;4.05;1.30;;;5.80;54.10;;;;;;5014933;28;20240;-71
2024/04/03 03:30:09;;;;;;;2.87;1.30;;;5.70;54.00;;;;;;5014490;28;20224;-71
2024/04/03 03:32:35;;;;;;;3.80;1.17;;;5.60;54.40;;;;;;5014881;28;20481;-70
2024/04/03 03:35:02;;;;;;;4.18;1.40;;;5.70;56.10;;;;;;5010412;28;20215;-71
2024/04/03 03:37:29;;;;;;;3.00;1.38;;;5.70;56.30;;;;;;4995263;28;20192;-70
2024/04/03 03:39:57;;;;;;;3.20;1.40;;;5.70;55.30;;;;;;4995627;28;20228;-70
2024/04/03 03:42:25;;;;;;;2.70;1.25;;;5.70;54.60;;;;;;5012424;28;20226;-71
2024/04/03 03:44:51;;;;;;;2.20;0.90;;;5.60;54.70;;;;;;5014305;28;20274;-71
2024/04/03 03:47:18;;;;;;;3.15;1.35;;;5.60;55.00;;;;;;5015282;28;20219;-70
2024/04/03 03:52:40;;;;;;;2.45;1.13;;;5.50;54.90;;;;;;4996938;28;20191;-71
2024/04/03 03:55:07;;;;;;;4.85;2.00;;;5.40;55.10;;;;;;4995415;28;20195;-71
2024/04/03 03:57:36;;;;;;;5.53;2.78;;;5.40;55.70;;;;;;4995272;28;20239;-70
2024/04/03 04:00:05;;;;;;;6.18;2.80;;;5.40;55.60;;;;;;4994839;28;20228;-71
2024/04/03 04:02:32;;;;;;;4.28;2.13;;;5.40;55.90;;;;;;5012190;28;20196;-70
2024/04/03 04:04:59;;;;;;;6.60;2.00;;;5.40;56.40;;;;;;5014626;28;20212;-70
2024/04/03 04:07:25;;;;;;;7.22;2.40;;;5.40;56.50;;;;;;5014295;28;20639;-71
2024/04/03 04:09:53;;;;;;;5.28;2.10;;;5.50;56.10;;;;;;5013871;28;20242;-71
2024/04/03 04:12:19;;;;;;;3.95;2.38;;;5.50;55.60;;;;;;4998723;28;20216;-70
2024/04/03 04:14:51;;;;;;;5.50;1.98;;;5.40;55.80;;;;;;4993810;28;20212;-71
2024/04/03 04:17:18;;;;;;;5.70;3.35;;;5.40;55.80;;;;;;4994571;28;20216;-70
2024/04/03 04:19:45;;;;;;;6.28;2.97;;;5.40;56.00;;;;;;4994958;28;20275;-70
2024/04/03 04:22:11;;;;;;;7.35;3.20;;;5.40;56.10;;;;;;5007942;28;20226;-71
2024/04/03 04:24:39;;;;;;;4.97;2.92;;;5.40;56.20;;;;;;5014494;28;20620;-70
2024/04/03 04:27:07;;;;;;;7.38;3.83;;;5.40;56.20;;;;;;5014040;28;20233;-70
2024/04/03 04:29:36;;;;;;;7.65;3.53;;;5.40;56.20;;;;;;5005712;28;20189;-71
2024/04/03 04:32:04;;;;;;;5.53;2.00;;;5.50;56.50;;;;;;5006144;28;20670;-70
2024/04/03 04:34:31;;;;;;;5.30;2.38;;;5.50;56.60;;;;;;5014266;28;20231;-71
2024/04/03 04:36:57;;;;;;;3.50;2.00;;;5.50;56.70;;;;;;5013864;28;20654;-70
2024/04/03 04:39:25;;;;;;;3.20;1.60;;;5.60;56.70;;;;;;5013741;28;20654;-71
2024/04/03 04:41:52;;;;;;;3.95;1.80;;;5.60;56.60;;;;;;5003633;28;20216;-71
2024/04/03 04:44:19;;;;;;;4.70;1.83;;;5.60;56.20;;;;;;4994364;28;20212;-70
2024/04/03 04:46:48;;;;;;;5.88;2.13;;;5.60;55.20;;;;;;4994282;28;20224;-71
2024/04/03 04:49:17;;;;;;;3.80;1.90;;;5.60;54.70;;;;;;4993879;28;20181;-71
2024/04/03 04:51:43;;;;;;;3.28;1.90;;;5.50;55.00;;;;;;4997894;28;20611;-70
2024/04/03 04:54:11;;;;;;;4.95;1.42;;;5.50;55.00;;;;;;4993732;28;20204;-71
2024/04/03 04:56:37;;;;;;;3.78;1.38;;;5.50;55.20;;;;;;4993797;28;20197;-71
2024/04/03 04:59:04;;;;;;;2.63;1.20;;;5.30;55.10;;;;;;4993782;28;20192;-71
2024/04/03 05:01:33;;;;;;;4.45;1.55;;;5.30;55.70;;;;;;4999934;28;20195;-70
2024/04/03 05:04:00;;;;;;;3.28;1.23;;;5.20;55.80;;;;;;5013339;28;20761;-70
2024/04/03 05:06:28;;;;;;;4.55;1.67;;;5.20;56.20;;;;;;5011666;28;20224;-71
2024/04/03 05:08:57;;;;;;;3.15;1.83;;;5.10;55.90;;;;;;5012719;28;20191;-70
2024/04/03 05:11:24;;;;;;;8.25;2.67;;;5.00;55.50;;;;;;5002168;28;20238;-70
2024/04/03 05:13:51;;;;;;;4.75;2.00;;;5.00;56.00;;;;;;5006912;28;20278;-70
2024/04/03 05:16:20;;;;;;;6.22;3.13;;;4.90;56.30;;;;;;5012797;28;20191;-70
2024/04/03 05:18:48;;;;;;;6.53;2.95;;;5.00;56.90;;;;;;5012643;28;20196;-71
2024/04/03 05:21:15;;;;;;;4.72;2.33;;;4.90;57.30;;;;;;5012544;28;20192;-70
2024/04/03 05:23:44;;;;;;;7.53;2.80;;;4.90;57.40;;;;;;4999296;28;20560;-71
2024/04/03 05:26:11;;;;;;;8.00;3.10;;;4.90;58.30;;;;;;4995035;28;20294;-72
2024/04/03 05:28:39;;;;;;;6.85;2.85;;;5.00;58.50;;;;;;4997125;28;20207;-72
2024/04/03 05:31:06;;;;;;;5.50;3.38;;;5.00;58.80;;;;;;5012352;28;20226;-71
2024/04/03 05:33:33;;;;;;;6.85;4.15;;;5.10;58.40;;;;;;5016510;28;20192;-71
2024/04/03 05:36:00;;;;;;;3.80;2.17;;;5.20;58.20;;;;;;5016768;28;20227;-70
2024/04/03 05:38:28;;;;;;;5.50;2.60;;;5.20;58.20;;;;;;5014811;28;20283;-70
2024/04/03 05:40:55;;;;;;;5.05;2.45;;;5.20;57.90;;;;;;5016144;28;20278;-71
2024/04/03 05:43:23;;;;;;;4.10;2.30;;;5.20;57.70;;;;;;5014738;28;20230;-71
2024/04/03 05:45:50;;;;;;;3.53;2.03;;;5.20;57.60;;;;;;5000454;28;20754;-70
2024/04/03 05:48:17;;;;;;;5.75;2.40;;;5.20;57.70;;;;;;4996859;28;20279;-70
2024/04/03 05:50:43;;;;;;;4.78;1.95;;;5.30;58.20;;;;;;4996412;28;20651;-70
2024/04/03 05:53:10;;;;;;;4.10;2.13;;;5.30;58.40;;;;;;4996424;28;20200;-70
2024/04/03 05:55:36;;;;;;;3.25;2.17;;;5.40;58.50;;;;;;4996907;28;20471;-71
2024/04/03 05:58:05;;;;;;;2.40;1.15;;;5.40;58.40;;;;;;5005643;28;20188;-70
2024/04/03 06:00:31;;;;;;;2.55;1.50;;;5.40;58.30;;;;;;4996510;28;20247;-71
2024/04/03 06:02:58;;;;;;;2.80;1.50;;;5.50;58.30;;;;;;4997424;28;20183;-70
2024/04/03 06:05:24;;;;;;;2.78;1.30;;;5.50;58.20;;;;;;4996098;28;20251;-70
2024/04/03 06:07:51;;;;;;;3.65;1.67;;;5.50;58.30;;;;;;4996482;28;20192;-70
2024/04/03 06:10:18;;;;;;;4.00;1.85;;;5.50;58.30;;;;;;5010698;28;20192;-71
2024/04/03 06:12:45;;;;;;;2.92;1.00;;;5.60;58.40;;;;;;5012613;28;20196;-71
2024/04/03 06:15:12;;;;;;;4.15;1.60;;;5.70;58.30;;;;;;4995910;28;20332;-70
2024/04/03 06:17:39;;;;;;;6.78;1.33;;;5.70;58.40;;;;;;4995907;28;20192;-70
2024/04/03 06:20:06;;;;;;;3.70;1.15;;;5.70;58.60;;;;;;5004045;28;20192;-70
2024/04/03 06:22:34;;;;;;;7.90;2.85;;;5.80;58.70;;;;;;5015286;28;20320;-70
2024/04/03 06:25:02;;;;;;;4.68;2.70;;;5.90;59.10;;;;;;5011786;28;20337;-71
2024/04/03 06:27:29;;;;;;;6.75;2.65;;;6.10;59.00;;;;;;5015469;28;20199;-70
2024/04/03 06:29:58;;;;;;;4.45;2.80;;;6.10;58.60;;;;;;5015171;28;20195;-70
2024/04/03 06:32:25;;;;;;;3.85;1.80;;;6.20;58.90;;;;;;5014602;28;20674;-71
2024/04/03 06:34:57;;;;;;;3.25;1.73;;;6.30;58.40;;;;;;5010658;28;20638;-70
2024/04/03 06:37:24;;;;;;;2.85;1.20;;;6.40;58.40;;;;;;5014405;28;20238;-70
2024/04/03 06:39:50;;;;;;;3.72;1.50;;;6.50;58.10;;;;;;5002721;28;20235;-70
2024/04/03 06:42:17;;;;;;;3.70;1.52;;;6.50;58.10;;;;;;4995562;28;20279;-70
2024/04/03 06:44:43;;;;;;;4.70;1.10;;;6.60;57.90;;;;;;4995344;28;20258;-71
2024/04/03 06:47:10;;;;;;;3.80;1.10;;;6.70;57.90;;;;;;5006711;28;20192;-71
2024/04/03 06:49:38;;;;;;;3.20;1.20;;;6.70;58.10;;;;;;5004187;28;20220;-71
2024/04/03 06:52:05;;;;;;;4.65;1.90;;;6.70;58.00;;;;;;4994970;28;20550;-71
2024/04/03 06:54:31;;;;;;;5.80;2.50;;;6.70;58.00;;;;;;4995571;28;20272;-71
2024/04/03 06:56:58;;;;;;;7.25;4.75;;;6.70;58.00;;;;;;5006038;28;20183;-70
2024/04/03 06:59:24;;;;;;;6.20;1.90;;;6.70;58.20;;;;;;5015579;28;20231;-71
2024/04/03 07:01:52;;;;;;;7.40;2.60;;;6.80;58.50;;;;;;5015757;28;20257;-70
2024/04/03 07:04:18;;;;;;;6.05;2.78;;;6.80;59.10;;;;;;5015521;28;20196;-71
2024/04/03 07:06:46;;;;;;;6.20;3.38;;;6.90;59.40;;;;;;5015284;28;20188;-70
2024/04/03 07:09:12;;;;;;;4.57;2.40;;;7.00;59.10;;;;;;5015246;28;20196;-70
2024/04/03 07:11:39;;;;;;;6.45;2.92;;;7.00;59.20;;;;;;5015407;28;20196;-70
2024/04/03 07:14:05;;;;;;;6.15;2.42;;;7.00;58.80;;;;;;5015467;28;20270;-70
2024/04/03 07:16:32;;;;;;;4.90;2.13;;;7.10;59.00;;;;;;5015327;28;20635;-70
2024/04/03 07:18:59;;;;;;;5.40;1.73;;;7.20;58.90;;;;;;5015403;28;20192;-71
2024/04/03 07:21:27;;;;;;;5.95;2.50;;;7.30;58.80;;;;;;5015219;28;20238;-70
2024/04/03 07:23:54;;;;;;;4.95;2.47;;;7.40;58.50;;;;;;5014847;28;20277;-71
2024/04/03 07:26:23;;;;;;;5.10;2.85;;;7.50;58.50;;;;;;5015072;28;20286;-70
2024/04/03 07:28:49;;;;;;;3.83;3.28;;;7.60;58.50;;;;;;5015037;28;20557;-70
2024/04/03 07:31:16;;;;;;;3.05;1.80;;;7.70;58.20;;;;;;5015057;28;20676;-70
2024/04/03 07:33:42;;;;;;;4.18;1.95;;;7.80;58.40;;;;;;5015035;28;20238;-70
2024/04/03 07:36:10;;;;;;;3.13;1.58;;;7.90;57.80;;;;;;5015158;28;20202;-70
2024/04/03 07:38:36;;;;;;;9.57;1.73;;;8.00;58.20;;;;;;5015025;28;20188;-70
2024/04/03 07:41:04;;;;;;;3.22;2.00;;;8.10;58.30;;;;;;5014995;28;20363;-71
2024/04/03 07:43:35;;;;;;;4.32;1.70;;;8.10;58.30;;;;;;5014588;28;20223;-70
2024/04/03 07:46:03;;;;;;;2.75;1.40;;;8.20;58.30;;;;;;5014907;28;20200;-71
2024/04/03 07:48:29;;;;;;;3.20;1.60;;;8.30;58.00;;;;;;5014639;28;20600;-71
2024/04/03 07:51:00;;;;;;;3.63;1.50;;;8.40;57.90;;;;;;5014425;28;20250;-70
2024/04/03 07:53:27;;;;;;;2.75;1.40;;;8.40;57.00;;;;;;5014981;28;20188;-70
2024/04/03 07:55:54;;;;;;;2.90;1.40;;;8.50;56.80;;;;;;5014651;28;20196;-70
2024/04/03 07:58:21;;;;;;;3.20;1.33;;;8.60;57.10;;;;;;5014613;28;20696;-70
2024/04/03 08:00:57;;;;;;;4.00;1.80;;;8.60;57.50;;;;;;5014842;28;20234;-70
2024/04/03 08:03:23;;;;;;;3.67;1.65;;;8.70;57.30;;;;;;5014574;28;20223;-70
2024/04/03 08:05:52;;;;;;;4.97;1.42;;;8.70;57.10;;;;;;5014498;28;20574;-70
2024/04/03 08:08:18;;;;;;;3.75;1.60;;;8.80;56.90;;;;;;5014089;28;20227;-70
2024/04/03 08:10:46;;;;;;;4.55;1.80;;;8.90;57.30;;;;;;5010352;28;20238;-71
2024/04/03 08:13:12;;;;;;;3.20;1.70;;;9.00;57.20;;;;;;5013763;28;20192;-71
2024/04/03 08:15:40;;;;;;;3.72;2.05;;;9.00;57.30;;;;;;5014286;28;20266;-71
2024/04/03 08:18:06;;;;;;;3.00;1.60;;;9.10;56.40;;;;;;5013775;28;20234;-71
2024/04/03 08:20:33;;;;;;;4.15;2.08;;;9.20;56.60;;;;;;5013689;28;20203;-71
2024/04/03 08:22:59;;;;;;;4.13;2.20;;;9.20;57.20;;;;;;5012737;28;20262;-71
2024/04/03 08:25:36;;;;;;;4.95;2.17;;;9.30;56.90;;;;;;5011536;28;20302;-71
2024/04/03 08:28:03;;;;;;;4.40;1.90;;;9.40;57.30;;;;;;5014376;28;20215;-71
2024/04/03 08:30:35;;;;;;;4.45;2.67;;;9.40;56.70;;;;;;5012142;28;20261;-71
2024/04/03 08:33:02;;;;;;;4.95;2.92;;;9.50;57.00;;;;;;5013731;28;20303;-71
2024/04/03 08:35:29;;;;;;;3.78;2.33;;;9.60;56.90;;;;;;5013546;28;20235;-71
2024/04/03 08:37:55;;;;;;;3.65;2.17;;;9.80;57.10;;;;;;5013414;28;20246;-70
2024/04/03 08:40:23;;;;;;;5.65;2.47;;;9.80;57.50;;;;;;5013886;28;20198;-71
2024/04/03 08:42:50;;;;;;;9.20;2.45;;;9.90;56.50;;;;;;5013624;28;20192;-71
2024/04/03 08:45:22;;;;;;;5.18;2.35;;;10.10;55.50;;;;;;5013941;28;20306;-72
2024/04/03 08:47:50;;;;;;;4.15;2.92;;;10.20;54.60;;;;;;5013901;28;20254;-70
2024/04/03 08:50:19;;;;;;;4.50;2.45;;;10.40;55.00;;;;;;5013575;28;20279;-71
2024/04/03 08:52:45;;;;;;;4.28;2.35;;;10.50;56.10;;;;;;5013770;28;20214;-71
2024/04/03 08:55:16;;;;;;;3.55;2.00;;;10.70;55.80;;;;;;5013857;28;20199;-71
2024/04/03 08:57:43;;;;;;;4.80;1.92;;;10.90;55.60;;;;;;5013277;28;20590;-71
2024/04/03 09:00:10;;;;;;;4.75;2.65;;;11.00;54.30;;;;;;5013232;28;20188;-71
2024/04/03 09:02:41;;;;;;;6.85;2.80;;;11.10;54.20;;;;;;5013904;28;20253;-71
2024/04/03 09:05:11;;;;;;;6.88;3.20;;;11.20;54.10;;;;;;5013589;28;20211;-70
2024/04/03 09:07:38;;;;;;;4.15;2.67;;;11.30;54.70;;;;;;5013433;28;20349;-71
2024/04/03 09:10:06;;;;;;;5.55;2.75;;;11.40;54.80;;;;;;5013629;28;20198;-71
2024/04/03 09:12:34;;;;;;;3.95;2.55;;;11.60;54.80;;;;;;5013621;28;20206;-71
2024/04/03 09:15:10;;;;;;;15.45;3.22;;;11.80;53.40;;;;;;5013268;28;20195;-71
2024/04/03 09:17:36;;;;;;;5.55;2.22;;;11.90;53.30;;;;;;5013673;28;20313;-71
2024/04/03 09:20:04;;;;;;;3.93;2.53;;;12.10;54.70;;;;;;5013512;28;20233;-71
2024/04/03 09:22:30;;;;;;;4.40;2.28;;;12.30;55.00;;;;;;5012650;28;20470;-71
2024/04/03 09:24:58;;;;;;;3.90;1.90;;;12.40;53.80;;;;;;5013337;28;20269;-71
2024/04/03 09:27:24;;;;;;;3.40;1.98;;;12.60;53.40;;;;;;5013348;28;20489;-71
2024/04/03 09:29:54;;;;;;;3.80;1.80;;;12.70;53.00;;;;;;5013240;28;20196;-71
2024/04/03 09:32:20;;;;;;;3.87;2.20;;;12.80;53.50;;;;;;5013335;28;20439;-71
2024/04/03 09:34:48;;;;;;;3.17;1.50;;;13.00;50.50;;;;;;5013562;28;20826;-71
2024/04/03 09:37:14;;;;;;;2.50;1.27;;;13.10;48.20;;;;;;5013307;28;20454;-71
2024/04/03 09:39:42;;;;;;;3.87;2.00;;;13.10;47.10;;;;;;5013113;28;20788;-71
2024/04/03 09:42:16;;;;;;;2.77;1.33;;;13.10;47.10;;;;;;5011371;28;20765;-71
2024/04/03 09:44:49;;;;;;;3.03;1.80;;;13.20;47.60;;;;;;5012958;28;20455;-71
2024/04/03 09:47:19;;;;;;;3.27;1.40;;;13.40;49.50;;;;;;5013287;28;20434;-71
2024/04/03 09:49:50;;;;;;;2.90;1.50;;;13.70;48.80;;;;;;5012934;28;20932;-71
2024/04/03 09:52:19;;;;;;;5.00;2.60;;;14.00;46.00;;;;;;5013601;28;20427;-71
2024/04/03 09:54:46;;;;;;;3.73;1.30;;;14.20;45.10;;;;;;5013259;28;20462;-71
2024/04/03 09:57:14;;;;;;;2.60;1.60;;;14.30;44.20;;;;;;5012578;28;20470;-71
2024/04/03 09:59:50;;;;;;;3.80;2.17;;;14.40;44.70;;;;;;5013115;28;20457;-71
2024/04/03 10:02:16;;;;;;;5.20;1.73;;;14.60;44.20;;;;;;5013124;28;20423;-71
2024/04/03 10:04:44;;;;;;;4.40;1.80;;;14.70;44.30;;;;;;5012713;28;20470;-72
2024/04/03 10:07:16;;;;;;;5.07;1.87;;;14.80;44.70;;;;;;5012784;28;20937;-71
2024/04/03 10:09:43;;;;;;;3.07;1.73;;;14.90;43.90;;;;;;5013058;28;20501;-71
2024/04/03 10:12:17;;;;;;;7.27;2.23;;;15.00;44.50;;;;;;5013170;28;20932;-71
2024/04/03 10:14:44;;;;;;;3.77;2.00;;;15.00;44.70;;;;;;5016235;28;20438;-71
2024/04/03 10:17:14;;;;;;;4.47;1.93;;;15.10;43.40;;;;;;5016695;28;20435;-71
2024/04/03 10:19:42;;;;;;;3.00;1.53;;;15.10;44.10;;;;;;5016392;28;20439;-71
2024/04/03 10:22:14;;;;;;;3.03;1.80;;;15.10;42.40;;;;;;5015875;28;20526;-71
2024/04/03 10:24:43;;;;;;;4.23;1.83;;;15.10;41.60;;;;;;5016062;28;20906;-72
2024/04/03 10:27:10;;;;;;;5.40;2.47;;;15.10;42.00;;;;;;5015025;28;20964;-73
2024/04/03 10:29:38;;;;;;;4.03;2.20;;;15.10;42.10;;;;;;5014827;28;20913;-71
2024/04/03 10:32:05;;;;;;;3.97;1.67;;;15.10;41.90;;;;;;5016284;28;20836;-71
2024/04/03 10:34:33;;;;;;;4.80;1.47;;;15.10;42.00;;;;;;5015977;28;20470;-71
2024/04/03 10:37:00;;;;;;;3.50;1.67;;;15.10;41.30;;;;;;5016206;28;20513;-71
2024/04/03 10:39:27;;;;;;;3.07;1.30;;;15.10;40.60;;;;;;5009680;28;20447;-72
2024/04/03 10:41:59;;;;;;;3.63;1.80;;;15.20;40.30;;;;;;5015775;28;20474;-71
2024/04/03 10:44:27;;;;;;;3.13;1.60;;;15.20;38.60;;;;;;5015564;28;20929;-71
2024/04/03 10:47:04;;;;;;;3.30;1.40;;;15.10;39.40;;;;;;5011916;28;20492;-71
2024/04/03 10:49:32;;;;;;;3.40;1.33;;;15.10;38.90;;;;;;5014606;28;20429;-71
2024/04/03 10:51:58;;;;;;;6.60;1.20;;;15.00;38.60;;;;;;5015351;28;20439;-71
2024/04/03 10:54:27;;;;;;;4.97;1.77;;;15.00;38.30;;;;;;5015510;28;20508;-71
2024/04/03 10:56:53;;;;;;;3.37;1.70;;;14.90;38.70;;;;;;5015422;28;20854;-71
2024/04/03 10:59:27;;;;;;;2.30;1.00;;;15.00;40.90;;;;;;5014315;28;20844;-71
2024/04/03 11:01:53;;;;;;;2.80;1.40;;;15.00;41.00;;;;;;5015517;28;20429;-72
2024/04/03 11:04:26;;;;;;;3.40;1.77;;;15.00;40.50;;;;;;5015240;28;20522;-71
2024/04/03 11:06:52;;;;;;;4.00;1.73;;;15.00;40.00;;;;;;5014802;28;20502;-71
2024/04/03 11:09:19;;;;;;;3.90;1.30;;;15.00;40.00;;;;;;5012926;28;20497;-71
2024/04/03 11:11:52;;;;;;;4.90;1.20;;;15.00;40.60;;;;;;5014492;28;20470;-72
2024/04/03 11:14:23;;;;;;;2.63;1.10;;;15.10;40.40;;;;;;5015193;28;20784;-71
2024/04/03 11:16:51;;;;;;;2.27;0.93;;;15.10;40.10;;;;;;5014982;28;20429;-71
2024/04/03 11:19:18;;;;;;;2.37;1.13;;;15.10;40.20;;;;;;5014016;28;20439;-72
2024/04/03 11:21:46;;;;;;;2.47;1.10;;;15.10;41.00;;;;;;4995677;28;20471;-71
2024/04/03 11:24:16;;;;;;;2.20;0.80;;;15.10;41.00;;;;;;4995095;28;20482;-71
2024/04/03 11:26:43;;;;;;;3.57;1.30;;;15.20;42.10;;;;;;4995601;28;20473;-71
2024/04/03 11:29:27;;;;;;;5.23;1.50;;;15.30;41.10;;;;;;4995679;28;20443;-71
2024/04/03 11:31:58;;;;;;;5.87;1.20;;;15.30;40.90;;;;;;4995537;28;20494;-71
2024/04/03 11:34:27;;;;;;;2.80;1.37;;;15.40;41.30;;;;;;4995580;28;20450;-71
2024/04/03 11:36:56;;;;;;;3.40;1.27;;;15.50;39.50;;;;;;4995346;28;20791;-71
2024/04/03 11:39:30;;;;;;;2.30;1.20;;;15.60;40.20;;;;;;4995543;28;20436;-71
2024/04/03 11:41:57;;;;;;;2.17;0.80;;;15.80;40.90;;;;;;4995294;28;20880;-72
2024/04/03 11:44:29;;;;;;;3.03;1.00;;;15.90;40.60;;;;;;4995523;28;20785;-71
2024/04/03 11:47:00;;;;;;;4.03;1.10;;;16.00;39.10;;;;;;4995276;28;20569;-71
2024/04/03 11:49:32;;;;;;;5.27;1.60;;;16.10;39.00;;;;;;4994938;28;20519;-71
2024/04/03 11:52:00;;;;;;;2.30;1.00;;;16.10;39.20;;;;;;4994866;28;20486;-71
2024/04/03 11:54:27;;;;;;;2.47;1.23;;;16.20;40.20;;;;;;4995294;28;20475;-71
2024/04/03 11:56:55;;;;;;;2.50;0.70;;;16.30;40.20;;;;;;4994844;28;20918;-71
2024/04/03 11:59:22;;;;;;;2.30;0.90;;;16.40;40.50;;;;;;4995048;28;20446;-72
2024/04/03 12:01:53;;;;;;;2.97;1.00;;;16.50;40.20;;;;;;4994937;28;20440;-71
2024/04/03 12:04:20;;;;;;;2.03;0.90;;;16.50;38.80;;;;;;4994997;28;20432;-71
2024/04/03 12:06:46;;;;;;;3.13;1.10;;;16.60;38.80;;;;;;4994863;28;20529;-71
2024/04/03 12:09:14;;;;;;;2.40;1.07;;;16.70;38.70;;;;;;4994820;28;20446;-71
2024/04/03 12:11:40;;;;;;;2.27;0.97;;;16.80;39.00;;;;;;4994461;28;20516;-71
2024/04/03 12:14:08;;;;;;;3.40;1.00;;;16.70;38.50;;;;;;4994698;28;20436;-71
2024/04/03 12:16:34;;;;;;;3.53;1.33;;;16.80;38.60;;;;;;4994723;28;20456;-71
2024/04/03 12:19:13;;;;;;;3.53;0.93;;;16.80;39.30;;;;;;4994289;28;20939;-71
2024/04/03 12:21:40;;;;;;;3.67;1.30;;;16.80;39.60;;;;;;4994713;28;20432;-72
2024/04/03 12:24:08;;;;;;;2.57;1.10;;;16.90;39.50;;;;;;4993796;28;20472;-71
2024/04/03 12:26:36;;;;;;;3.57;1.00;;;16.90;40.70;;;;;;4994350;28;20569;-71
2024/04/03 12:29:04;;;;;;;2.10;0.80;;;17.00;40.90;;;;;;4994506;28;20445;-71
2024/04/03 12:31:30;;;;;;;2.30;1.20;;;17.10;39.90;;;;;;4994167;28;21002;-71
2024/04/03 12:33:58;;;;;;;2.67;1.07;;;17.10;38.80;;;;;;4994072;28;20951;-71
2024/04/03 12:36:25;;;;;;;2.60;0.80;;;17.20;40.00;;;;;;4993578;28;20584;-71
2024/04/03 12:38:53;;;;;;;2.43;1.10;;;17.20;38.70;;;;;;4993998;28;20442;-71
2024/04/03 12:41:21;;;;;;;3.13;1.00;;;17.10;37.90;;;;;;4994309;28;20446;-72
2024/04/03 12:43:49;;;;;;;2.00;0.90;;;17.10;37.70;;;;;;4994189;28;20915;-71
2024/04/03 12:46:15;;;;;;;3.17;1.83;;;17.00;38.20;;;;;;4993814;28;20508;-71
2024/04/03 12:48:42;;;;;;;2.90;1.10;;;17.00;38.70;;;;;;4994519;28;20471;-71
2024/04/03 12:51:08;;;;;;;2.73;1.30;;;17.00;39.10;;;;;;4994070;28;20439;-71
2024/04/03 12:53:35;;;;;;;2.30;0.97;;;17.00;37.70;;;;;;4994197;28;20445;-71
2024/04/03 12:56:01;;;;;;;2.30;0.87;;;16.90;37.70;;;;;;4994186;28;20438;-71
2024/04/03 12:58:28;;;;;;;2.00;0.60;;;16.80;38.40;;;;;;4993884;28;20869;-71